sensor_id;sensor_type;location;lat;lon;timestamp;temperature;humidity
12452;DHT22;6291;48.924;12.204;2023-06-22T00:03:18;18.70;99.90
12452;DHT22;6291;48.924;12.204;2023-06-22T00:08:23;18.80;1.00
12452;DHT22;6291;48.924;12.204;2023-06-22T00:13:26;18.60;33.70
12452;DHT22;6291;48.924;12.204;2023-06-22T00:18:29;18.70;99.90
12452;DHT22;6291;48.924;12.204;2023-06-22T00:23:36;18.90;99.90
12452;DHT22;6291;48.924;12.204;2023-06-22T00:28:39;18.90;1.00
12452;DHT22;6291;48.924;12.204;2023-06-22T00:33:43;19.10;99.90
12452;DHT22;6291;48.924;12.204;2023-06-22T00:38:48;19.20;1.00
12452;DHT22;6291;48.924;12.204;2023-06-22T00:43:52;19.10;99.90
12452;DHT22;6291;48.924;12.204;2023-06-22T00:48:55;19.00;99.90
12452;DHT22;6291;48.924;12.204;2023-06-22T00:54:04;18.90;99.90
12452;DHT22;6291;48.924;12.204;2023-06-22T00:59:08;18.80;99.90
12452;DHT22;6291;48.924;12.204;2023-06-22T01:04:15;18.70;1.00
12452;DHT22;6291;48.924;12.204;2023-06-22T01:09:28;18.70;99.90
12452;DHT22;6291;48.924;12.204;2023-06-22T01:14:37;18.70;82.30
12452;DHT22;6291;48.924;12.204;2023-06-22T01:19:45;18.50;1.00
12452;DHT22;6291;48.924;12.204;2023-06-22T01:24:58;18.40;1.00
12452;DHT22;6291;48.924;12.204;2023-06-22T01:30:07;18.40;1.00
12452;DHT22;6291;48.924;12.204;2023-06-22T01:35:13;18.50;99.90
12452;DHT22;6291;48.924;12.204;2023-06-22T01:40:18;18.40;99.90
12452;DHT22;6291;48.924;12.204;2023-06-22T01:45:24;18.40;99.90
12452;DHT22;6291;48.924;12.204;2023-06-22T01:50:30;18.30;99.90
12452;DHT22;6291;48.924;12.204;2023-06-22T01:55:33;18.20;1.00
12452;DHT22;6291;48.924;12.204;2023-06-22T02:00:41;18.30;38.90
12452;DHT22;6291;48.924;12.204;2023-06-22T02:05:51;18.20;99.00
12452;DHT22;6291;48.924;12.204;2023-06-22T02:10:58;18.30;1.00
12452;DHT22;6291;48.924;12.204;2023-06-22T02:16:05;18.40;1.00
12452;DHT22;6291;48.924;12.204;2023-06-22T02:21:08;18.30;1.00
12452;DHT22;6291;48.924;12.204;2023-06-22T02:26:12;18.30;1.00
12452;DHT22;6291;48.924;12.204;2023-06-22T02:31:17;18.20;1.00
12452;DHT22;6291;48.924;12.204;2023-06-22T02:36:20;18.20;1.00
12452;DHT22;6291;48.924;12.204;2023-06-22T02:41:24;18.20;99.90
12452;DHT22;6291;48.924;12.204;2023-06-22T02:46:32;18.30;99.90
12452;DHT22;6291;48.924;12.204;2023-06-22T02:51:37;18.40;99.90
12452;DHT22;6291;48.924;12.204;2023-06-22T02:56:43;18.50;99.90
12452;DHT22;6291;48.924;12.204;2023-06-22T03:01:48;18.50;96.80
12452;DHT22;6291;48.924;12.204;2023-06-22T03:06:59;18.40;99.90
12452;DHT22;6291;48.924;12.204;2023-06-22T03:12:05;18.20;99.90
12452;DHT22;6291;48.924;12.204;2023-06-22T03:17:21;18.10;99.90
12452;DHT22;6291;48.924;12.204;2023-06-22T03:22:25;18.00;99.90
12452;DHT22;6291;48.924;12.204;2023-06-22T03:27:28;18.00;99.90
12452;DHT22;6291;48.924;12.204;2023-06-22T03:32:33;18.00;99.90
12452;DHT22;6291;48.924;12.204;2023-06-22T03:37:36;18.00;99.90
12452;DHT22;6291;48.924;12.204;2023-06-22T03:42:39;18.10;99.90
12452;DHT22;6291;48.924;12.204;2023-06-22T03:47:45;18.20;99.90
12452;DHT22;6291;48.924;12.204;2023-06-22T03:52:48;18.20;99.90
12452;DHT22;6291;48.924;12.204;2023-06-22T03:57:53;18.20;99.90
12452;DHT22;6291;48.924;12.204;2023-06-22T04:03:00;18.30;99.90
12452;DHT22;6291;48.924;12.204;2023-06-22T04:08:04;18.40;99.90
12452;DHT22;6291;48.924;12.204;2023-06-22T04:13:08;18.10;99.90
12452;DHT22;6291;48.924;12.204;2023-06-22T04:18:12;18.10;99.90
12452;DHT22;6291;48.924;12.204;2023-06-22T04:23:16;18.10;99.90
12452;DHT22;6291;48.924;12.204;2023-06-22T04:28:19;18.10;99.90
12452;DHT22;6291;48.924;12.204;2023-06-22T04:33:24;18.30;99.90
12452;DHT22;6291;48.924;12.204;2023-06-22T04:38:28;18.50;99.90
12452;DHT22;6291;48.924;12.204;2023-06-22T04:43:35;18.40;99.90
12452;DHT22;6291;48.924;12.204;2023-06-22T04:48:39;18.80;99.90
12452;DHT22;6291;48.924;12.204;2023-06-22T04:53:43;19.00;99.90
12452;DHT22;6291;48.924;12.204;2023-06-22T04:58:46;18.90;99.90
12452;DHT22;6291;48.924;12.204;2023-06-22T05:03:51;18.90;99.90
12452;DHT22;6291;48.924;12.204;2023-06-22T05:08:57;18.80;99.90
12452;DHT22;6291;48.924;12.204;2023-06-22T05:14:01;18.70;99.90
12452;DHT22;6291;48.924;12.204;2023-06-22T05:19:06;18.80;99.90
12452;DHT22;6291;48.924;12.204;2023-06-22T05:24:09;19.00;99.90
12452;DHT22;6291;48.924;12.204;2023-06-22T05:29:13;19.20;99.90
12452;DHT22;6291;48.924;12.204;2023-06-22T05:34:17;19.50;99.90
12452;DHT22;6291;48.924;12.204;2023-06-22T05:39:21;19.40;99.90
12452;DHT22;6291;48.924;12.204;2023-06-22T05:44:24;19.50;99.90
12452;DHT22;6291;48.924;12.204;2023-06-22T05:49:29;19.50;99.90
12452;DHT22;6291;48.924;12.204;2023-06-22T05:54:35;19.70;94.90
12452;DHT22;6291;48.924;12.204;2023-06-22T05:59:38;20.00;45.70
12452;DHT22;6291;48.924;12.204;2023-06-22T06:04:43;20.40;1.00
12452;DHT22;6291;48.924;12.204;2023-06-22T06:09:46;20.80;1.00
12452;DHT22;6291;48.924;12.204;2023-06-22T06:14:50;21.10;18.50
12452;DHT22;6291;48.924;12.204;2023-06-22T06:19:56;21.60;99.90
12452;DHT22;6291;48.924;12.204;2023-06-22T06:25:00;21.30;99.90
12452;DHT22;6291;48.924;12.204;2023-06-22T06:30:04;21.50;84.40
12452;DHT22;6291;48.924;12.204;2023-06-22T06:35:09;21.80;99.90
12452;DHT22;6291;48.924;12.204;2023-06-22T06:40:14;22.30;99.90
12452;DHT22;6291;48.924;12.204;2023-06-22T06:45:19;22.50;1.00
12452;DHT22;6291;48.924;12.204;2023-06-22T06:50:26;24.10;1.00
12452;DHT22;6291;48.924;12.204;2023-06-22T06:55:30;25.80;1.00
12452;DHT22;6291;48.924;12.204;2023-06-22T07:00:35;26.50;1.00
12452;DHT22;6291;48.924;12.204;2023-06-22T07:05:40;27.10;99.90
12452;DHT22;6291;48.924;12.204;2023-06-22T07:10:43;28.10;99.90
12452;DHT22;6291;48.924;12.204;2023-06-22T07:15:46;25.00;99.90
12452;DHT22;6291;48.924;12.204;2023-06-22T07:20:51;26.10;99.90
12452;DHT22;6291;48.924;12.204;2023-06-22T07:25:54;28.10;99.90
12452;DHT22;6291;48.924;12.204;2023-06-22T07:30:58;28.50;99.90
12452;DHT22;6291;48.924;12.204;2023-06-22T07:36:03;29.00;99.90
12452;DHT22;6291;48.924;12.204;2023-06-22T07:41:10;29.30;99.90
12452;DHT22;6291;48.924;12.204;2023-06-22T07:46:13;29.70;99.90
12452;DHT22;6291;48.924;12.204;2023-06-22T07:51:18;29.10;99.90
12452;DHT22;6291;48.924;12.204;2023-06-22T07:56:21;29.30;99.90
12452;DHT22;6291;48.924;12.204;2023-06-22T08:01:25;29.50;99.90
12452;DHT22;6291;48.924;12.204;2023-06-22T08:06:31;30.00;99.90
12452;DHT22;6291;48.924;12.204;2023-06-22T08:11:34;29.60;99.90
12452;DHT22;6291;48.924;12.204;2023-06-22T08:16:37;29.90;99.90
12452;DHT22;6291;48.924;12.204;2023-06-22T08:21:42;29.50;99.90
12452;DHT22;6291;48.924;12.204;2023-06-22T08:26:45;30.10;99.90
12452;DHT22;6291;48.924;12.204;2023-06-22T08:31:49;30.40;99.90
12452;DHT22;6291;48.924;12.204;2023-06-22T08:36:53;30.70;99.90
12452;DHT22;6291;48.924;12.204;2023-06-22T08:41:57;31.10;99.90
12452;DHT22;6291;48.924;12.204;2023-06-22T08:47:00;30.70;99.90
12452;DHT22;6291;48.924;12.204;2023-06-22T08:52:06;31.20;99.90
12452;DHT22;6291;48.924;12.204;2023-06-22T08:57:10;32.00;99.90
12452;DHT22;6291;48.924;12.204;2023-06-22T09:02:13;31.70;99.90
12452;DHT22;6291;48.924;12.204;2023-06-22T09:07:18;32.10;99.90
12452;DHT22;6291;48.924;12.204;2023-06-22T09:12:24;32.40;99.90
12452;DHT22;6291;48.924;12.204;2023-06-22T09:17:29;32.90;99.90
12452;DHT22;6291;48.924;12.204;2023-06-22T09:22:34;32.70;99.90
12452;DHT22;6291;48.924;12.204;2023-06-22T09:27:37;32.80;99.90
12452;DHT22;6291;48.924;12.204;2023-06-22T09:32:40;32.50;99.90
12452;DHT22;6291;48.924;12.204;2023-06-22T09:37:45;32.40;99.90
12452;DHT22;6291;48.924;12.204;2023-06-22T09:42:49;33.20;99.90
12452;DHT22;6291;48.924;12.204;2023-06-22T09:47:52;33.80;99.90
12452;DHT22;6291;48.924;12.204;2023-06-22T09:52:57;33.20;99.90
12452;DHT22;6291;48.924;12.204;2023-06-22T09:58:00;33.70;99.90
12452;DHT22;6291;48.924;12.204;2023-06-22T10:03:03;34.00;99.90
12452;DHT22;6291;48.924;12.204;2023-06-22T10:08:08;33.90;99.90
12452;DHT22;6291;48.924;12.204;2023-06-22T10:13:12;33.20;99.90
12452;DHT22;6291;48.924;12.204;2023-06-22T10:18:15;33.50;99.90
12452;DHT22;6291;48.924;12.204;2023-06-22T10:23:20;34.50;99.90
12452;DHT22;6291;48.924;12.204;2023-06-22T10:28:24;35.60;99.90
12452;DHT22;6291;48.924;12.204;2023-06-22T10:33:27;35.30;99.90
12452;DHT22;6291;48.924;12.204;2023-06-22T10:38:32;35.30;99.90
12452;DHT22;6291;48.924;12.204;2023-06-22T10:43:35;35.20;99.90
12452;DHT22;6291;48.924;12.204;2023-06-22T10:48:38;35.60;99.90
12452;DHT22;6291;48.924;12.204;2023-06-22T10:53:43;35.50;99.90
12452;DHT22;6291;48.924;12.204;2023-06-22T10:58:48;35.20;99.90
12452;DHT22;6291;48.924;12.204;2023-06-22T11:03:51;35.30;99.90
12452;DHT22;6291;48.924;12.204;2023-06-22T11:08:56;35.60;99.90
12452;DHT22;6291;48.924;12.204;2023-06-22T11:14:20;35.60;99.90
12452;DHT22;6291;48.924;12.204;2023-06-22T11:19:24;36.10;99.90
12452;DHT22;6291;48.924;12.204;2023-06-22T11:24:28;35.40;99.90
12452;DHT22;6291;48.924;12.204;2023-06-22T11:29:32;34.70;99.90
12452;DHT22;6291;48.924;12.204;2023-06-22T11:34:39;34.90;99.90
12452;DHT22;6291;48.924;12.204;2023-06-22T11:39:44;34.60;99.90
12452;DHT22;6291;48.924;12.204;2023-06-22T11:45:00;35.00;99.90
12452;DHT22;6291;48.924;12.204;2023-06-22T11:50:04;34.80;99.90
12452;DHT22;6291;48.924;12.204;2023-06-22T11:55:09;34.00;99.90
12452;DHT22;6291;48.924;12.204;2023-06-22T12:00:13;33.60;99.90
12452;DHT22;6291;48.924;12.204;2023-06-22T12:05:19;33.70;99.90
12452;DHT22;6291;48.924;12.204;2023-06-22T12:10:25;34.70;99.90
12452;DHT22;6291;48.924;12.204;2023-06-22T12:15:31;36.10;99.90
12452;DHT22;6291;48.924;12.204;2023-06-22T12:20:34;36.70;99.90
12452;DHT22;6291;48.924;12.204;2023-06-22T12:25:39;37.10;99.90
12452;DHT22;6291;48.924;12.204;2023-06-22T12:30:42;37.20;99.90
12452;DHT22;6291;48.924;12.204;2023-06-22T12:35:46;37.20;99.90
12452;DHT22;6291;48.924;12.204;2023-06-22T12:40:52;37.50;99.90
12452;DHT22;6291;48.924;12.204;2023-06-22T12:45:55;37.40;99.90
12452;DHT22;6291;48.924;12.204;2023-06-22T12:50:59;37.40;99.90
12452;DHT22;6291;48.924;12.204;2023-06-22T12:56:04;38.50;99.90
12452;DHT22;6291;48.924;12.204;2023-06-22T13:01:07;39.20;99.90
12452;DHT22;6291;48.924;12.204;2023-06-22T13:06:10;39.70;99.90
12452;DHT22;6291;48.924;12.204;2023-06-22T13:11:15;39.20;99.90
12452;DHT22;6291;48.924;12.204;2023-06-22T13:16:19;37.50;99.90
12452;DHT22;6291;48.924;12.204;2023-06-22T13:21:22;38.50;99.90
12452;DHT22;6291;48.924;12.204;2023-06-22T13:26:27;38.60;99.90
12452;DHT22;6291;48.924;12.204;2023-06-22T13:31:32;38.50;99.90
12452;DHT22;6291;48.924;12.204;2023-06-22T13:36:35;38.60;99.90
12452;DHT22;6291;48.924;12.204;2023-06-22T13:41:40;40.00;99.90
12452;DHT22;6291;48.924;12.204;2023-06-22T13:46:45;39.60;99.90
12452;DHT22;6291;48.924;12.204;2023-06-22T13:51:49;39.30;99.90
12452;DHT22;6291;48.924;12.204;2023-06-22T13:56:53;39.10;99.90
12452;DHT22;6291;48.924;12.204;2023-06-22T14:01:57;39.70;99.90
12452;DHT22;6291;48.924;12.204;2023-06-22T14:07:00;38.20;99.90
12452;DHT22;6291;48.924;12.204;2023-06-22T14:12:06;37.20;99.90
12452;DHT22;6291;48.924;12.204;2023-06-22T14:17:10;37.20;99.90
12452;DHT22;6291;48.924;12.204;2023-06-22T14:22:13;37.10;99.90
12452;DHT22;6291;48.924;12.204;2023-06-22T14:27:18;35.60;99.90
12452;DHT22;6291;48.924;12.204;2023-06-22T14:32:21;36.20;99.90
12452;DHT22;6291;48.924;12.204;2023-06-22T14:37:26;34.90;99.90
12452;DHT22;6291;48.924;12.204;2023-06-22T14:42:30;36.80;99.90
12452;DHT22;6291;48.924;12.204;2023-06-22T14:47:34;37.60;99.90
12452;DHT22;6291;48.924;12.204;2023-06-22T14:52:37;38.50;99.90
12452;DHT22;6291;48.924;12.204;2023-06-22T14:57:42;39.10;99.90
12452;DHT22;6291;48.924;12.204;2023-06-22T15:02:45;39.90;99.90
12452;DHT22;6291;48.924;12.204;2023-06-22T15:07:49;40.20;99.90
12452;DHT22;6291;48.924;12.204;2023-06-22T15:12:53;40.90;99.90
12452;DHT22;6291;48.924;12.204;2023-06-22T15:17:57;41.20;99.90
12452;DHT22;6291;48.924;12.204;2023-06-22T15:23:00;41.70;99.90
12452;DHT22;6291;48.924;12.204;2023-06-22T15:28:05;42.00;99.90
12452;DHT22;6291;48.924;12.204;2023-06-22T15:33:08;40.10;99.90
12452;DHT22;6291;48.924;12.204;2023-06-22T15:38:12;38.70;99.90
12452;DHT22;6291;48.924;12.204;2023-06-22T15:43:17;37.90;99.90
12452;DHT22;6291;48.924;12.204;2023-06-22T15:48:22;36.60;99.90
12452;DHT22;6291;48.924;12.204;2023-06-22T15:53:25;36.30;99.90
12452;DHT22;6291;48.924;12.204;2023-06-22T15:58:30;35.60;99.90
12452;DHT22;6291;48.924;12.204;2023-06-22T16:03:34;35.00;99.90
12452;DHT22;6291;48.924;12.204;2023-06-22T16:08:38;34.50;99.90
12452;DHT22;6291;48.924;12.204;2023-06-22T16:13:42;34.20;99.90
12452;DHT22;6291;48.924;12.204;2023-06-22T16:18:48;34.10;99.90
12452;DHT22;6291;48.924;12.204;2023-06-22T16:23:52;34.10;99.90
12452;DHT22;6291;48.924;12.204;2023-06-22T16:28:56;33.90;99.90
12452;DHT22;6291;48.924;12.204;2023-06-22T16:34:00;33.70;99.90
12452;DHT22;6291;48.924;12.204;2023-06-22T16:39:04;33.50;99.90
12452;DHT22;6291;48.924;12.204;2023-06-22T16:44:11;33.40;99.90
12452;DHT22;6291;48.924;12.204;2023-06-22T16:49:15;33.20;99.90
12452;DHT22;6291;48.924;12.204;2023-06-22T16:54:19;33.20;99.90
12452;DHT22;6291;48.924;12.204;2023-06-22T16:59:24;33.10;99.90
12452;DHT22;6291;48.924;12.204;2023-06-22T17:04:29;33.00;99.90
12452;DHT22;6291;48.924;12.204;2023-06-22T17:09:37;32.90;99.90
12452;DHT22;6291;48.924;12.204;2023-06-22T17:14:44;32.90;99.90
12452;DHT22;6291;48.924;12.204;2023-06-22T17:19:47;32.70;99.90
12452;DHT22;6291;48.924;12.204;2023-06-22T17:24:51;32.60;99.90
12452;DHT22;6291;48.924;12.204;2023-06-22T17:30:15;32.50;99.90
12452;DHT22;6291;48.924;12.204;2023-06-22T17:35:20;32.40;99.90
12452;DHT22;6291;48.924;12.204;2023-06-22T17:40:25;32.10;99.90
12452;DHT22;6291;48.924;12.204;2023-06-22T17:45:30;31.90;99.90
12452;DHT22;6291;48.924;12.204;2023-06-22T17:50:38;31.80;99.90
12452;DHT22;6291;48.924;12.204;2023-06-22T17:55:41;31.50;99.90
12452;DHT22;6291;48.924;12.204;2023-06-22T18:00:47;31.20;99.90
12452;DHT22;6291;48.924;12.204;2023-06-22T18:05:51;30.80;99.90
12452;DHT22;6291;48.924;12.204;2023-06-22T18:10:56;30.50;99.90
12452;DHT22;6291;48.924;12.204;2023-06-22T18:16:04;30.50;99.90
12452;DHT22;6291;48.924;12.204;2023-06-22T18:21:08;30.40;99.90
12452;DHT22;6291;48.924;12.204;2023-06-22T18:26:13;30.20;99.90
12452;DHT22;6291;48.924;12.204;2023-06-22T18:31:18;30.00;99.90
12452;DHT22;6291;48.924;12.204;2023-06-22T18:36:24;29.80;99.90
12452;DHT22;6291;48.924;12.204;2023-06-22T18:41:34;29.70;99.90
12452;DHT22;6291;48.924;12.204;2023-06-22T18:46:39;29.60;99.90
12452;DHT22;6291;48.924;12.204;2023-06-22T18:51:49;29.30;99.90
12452;DHT22;6291;48.924;12.204;2023-06-22T18:56:54;29.00;99.90
12452;DHT22;6291;48.924;12.204;2023-06-22T19:02:01;28.60;99.90
12452;DHT22;6291;48.924;12.204;2023-06-22T19:07:05;28.10;99.90
12452;DHT22;6291;48.924;12.204;2023-06-22T19:12:22;27.70;99.90
12452;DHT22;6291;48.924;12.204;2023-06-22T19:17:29;27.30;99.90
12452;DHT22;6291;48.924;12.204;2023-06-22T19:22:45;27.20;99.90
12452;DHT22;6291;48.924;12.204;2023-06-22T19:27:49;27.10;99.90
12452;DHT22;6291;48.924;12.204;2023-06-22T19:32:57;26.80;99.90
12452;DHT22;6291;48.924;12.204;2023-06-22T19:38:00;26.70;99.90
12452;DHT22;6291;48.924;12.204;2023-06-22T19:43:06;26.80;99.90
12452;DHT22;6291;48.924;12.204;2023-06-22T19:48:12;26.10;99.90
12452;DHT22;6291;48.924;12.204;2023-06-22T19:53:15;25.90;1.00
12452;DHT22;6291;48.924;12.204;2023-06-22T19:58:20;25.70;1.00
12452;DHT22;6291;48.924;12.204;2023-06-22T20:03:28;25.10;1.00
12452;DHT22;6291;48.924;12.204;2023-06-22T20:08:42;25.10;1.00
12452;DHT22;6291;48.924;12.204;2023-06-22T20:13:49;25.70;99.90
12452;DHT22;6291;48.924;12.204;2023-06-22T20:19:07;26.10;99.90
12452;DHT22;6291;48.924;12.204;2023-06-22T20:24:14;26.20;99.90
12452;DHT22;6291;48.924;12.204;2023-06-22T20:29:25;25.70;99.90
12452;DHT22;6291;48.924;12.204;2023-06-22T20:34:34;24.90;99.90
12452;DHT22;6291;48.924;12.204;2023-06-22T20:39:38;24.70;1.00
12452;DHT22;6291;48.924;12.204;2023-06-22T20:44:41;25.00;1.00
12452;DHT22;6291;48.924;12.204;2023-06-22T20:49:48;25.10;1.00
12452;DHT22;6291;48.924;12.204;2023-06-22T20:54:52;25.10;1.00
12452;DHT22;6291;48.924;12.204;2023-06-22T20:59:55;24.80;1.00
12452;DHT22;6291;48.924;12.204;2023-06-22T21:05:00;24.70;1.00
12452;DHT22;6291;48.924;12.204;2023-06-22T21:10:04;24.30;99.90
12452;DHT22;6291;48.924;12.204;2023-06-22T21:15:08;22.60;1.00
12452;DHT22;6291;48.924;12.204;2023-06-22T21:20:14;21.90;81.60
12452;DHT22;6291;48.924;12.204;2023-06-22T21:25:17;21.50;1.00
12452;DHT22;6291;48.924;12.204;2023-06-22T21:30:21;21.20;1.00
12452;DHT22;6291;48.924;12.204;2023-06-22T21:35:25;21.20;1.00
12452;DHT22;6291;48.924;12.204;2023-06-22T21:40:29;21.00;99.90
12452;DHT22;6291;48.924;12.204;2023-06-22T21:45:32;20.90;1.00
12452;DHT22;6291;48.924;12.204;2023-06-22T21:50:37;20.90;1.00
12452;DHT22;6291;48.924;12.204;2023-06-22T21:55:41;20.90;99.90
12452;DHT22;6291;48.924;12.204;2023-06-22T22:00:44;20.90;1.00
12452;DHT22;6291;48.924;12.204;2023-06-22T22:05:49;20.80;99.90
12452;DHT22;6291;48.924;12.204;2023-06-22T22:10:52;20.70;1.00
12452;DHT22;6291;48.924;12.204;2023-06-22T22:15:55;20.60;99.90
12452;DHT22;6291;48.924;12.204;2023-06-22T22:21:00;20.50;99.90
12452;DHT22;6291;48.924;12.204;2023-06-22T22:26:03;20.30;1.00
12452;DHT22;6291;48.924;12.204;2023-06-22T22:31:07;20.20;99.90
12452;DHT22;6291;48.924;12.204;2023-06-22T22:36:11;20.40;1.00
12452;DHT22;6291;48.924;12.204;2023-06-22T22:41:16;20.10;1.00
12452;DHT22;6291;48.924;12.204;2023-06-22T22:46:19;20.10;1.00
12452;DHT22;6291;48.924;12.204;2023-06-22T22:51:24;19.80;94.40
12452;DHT22;6291;48.924;12.204;2023-06-22T22:56:27;19.60;1.00
12452;DHT22;6291;48.924;12.204;2023-06-22T23:01:31;19.40;1.00
12452;DHT22;6291;48.924;12.204;2023-06-22T23:06:37;19.30;1.00
12452;DHT22;6291;48.924;12.204;2023-06-22T23:11:40;19.20;49.50
12452;DHT22;6291;48.924;12.204;2023-06-22T23:16:43;19.30;1.00
12452;DHT22;6291;48.924;12.204;2023-06-22T23:21:48;19.50;1.00
12452;DHT22;6291;48.924;12.204;2023-06-22T23:26:51;19.50;1.00
12452;DHT22;6291;48.924;12.204;2023-06-22T23:31:58;19.30;42.90
12452;DHT22;6291;48.924;12.204;2023-06-22T23:37:03;19.00;99.90
12452;DHT22;6291;48.924;12.204;2023-06-22T23:42:07;19.00;99.90
12452;DHT22;6291;48.924;12.204;2023-06-22T23:47:12;19.00;1.00
12452;DHT22;6291;48.924;12.204;2023-06-22T23:52:17;19.10;99.90
12452;DHT22;6291;48.924;12.204;2023-06-22T23:57:20;19.10;99.90
